Frank T. Stegbauer — WDE5944 — position and weather

sailwx.info

Track history (hours):
 
Tides and Currents Weather Stations Pressure Air Temp Water Temp Dewpoint Dewpoint Depression Visibility Wind Speed Wind Dir Waves Ship Positions

Frank T. Stegbauer

Owner: Southern Towing Company, Memphis, TN. More information available from US FCC via Universal Licensing System and Coast Guard Vessel Documentation Center.

Last reported at 2015-May-04 10:33 UTC. Time now 2015-May-22 19:11 UTC.
Position N 30°57' W 091°39'.
Warning: this ship's position is 18 days out of date.

Length 35 m; draft 8.6 m.

Type: Tug. MMSI: 367373640.

Date/timePositionNaut miles runAvg speedWind from/ knotsBaromVisibWave heightAir tempDewpointWater temp
2015-May-04 10:33N 30°57' W 091°39'14 3.2
2015-May-04 06:12N 30°44' W 091°32'3 4.4
2015-May-04 05:27N 30°44' W 091°29'4 4.7
2015-May-04 04:33N 30°46' W 091°24'4 4.5
2015-May-04 03:33N 30°42' W 091°21'3 3.3
2015-May-04 02:33N 30°39' W 091°19'4 4.2
2015-May-04 01:33N 30°35' W 091°19'4 4.0
2015-May-04 00:33N 30°34' W 091°15'4 3.8
2015-May-03 23:33N 30°30' W 091°17'2 2.1
2015-May-03 22:33N 30°31' W 091°14'3 2.8
2015-May-03 21:33N 30°29' W 091°12'4 4.4
2015-May-03 20:33N 30°24' W 091°12'1 1.0
2015-May-03 19:33N 30°24' W 091°13'0 0.0
2015-May-03 18:33N 30°24' W 091°13'3 3.0
2015-May-03 17:28N 30°20' W 091°13'4 3.9
2015-May-03 16:29N 30°19' W 091°09'5 4.1
2015-May-03 15:18N 30°18' W 091°14'5 3.9
2015-May-03 14:07N 30°17' W 091°09'3 4.3
2015-May-03 13:31N 30°15' W 091°07'3 2.0
2015-May-03 12:05N 30°12' W 091°07'3 5.1
2015-May-03 11:32N 30°13' W 091°04'6 3.9
2015-May-03 10:05N 30°08' W 091°02'  
2015-Apr-30 13:30N 30°12' W 091°07'0 0.0
2015-Apr-30 12:28N 30°12' W 091°07'0 0.0
2015-Apr-30 11:16N 30°12' W 091°07'0 0.0
2015-Apr-30 10:33N 30°12' W 091°07'0 0.0
2015-Apr-30 09:07N 30°12' W 091°07'0 0.0
2015-Apr-30 08:28N 30°12' W 091°07'  
2015-Apr-28 01:18N 30°15' W 091°07'7 9.4
2015-Apr-28 00:33N 30°19' W 091°13'3 3.0
2015-Apr-27 23:33N 30°22' W 091°14'9 9.3
2015-Apr-27 22:33N 30°31' W 091°12'4 3.7
2015-Apr-27 21:33N 30°33' W 091°15'9 9.0
2015-Apr-27 20:32N 30°41' W 091°21'  
Track history (hours):
 
Tides and Currents Weather Stations Pressure Air Temp Water Temp Dewpoint Dewpoint Depression Visibility Wind Speed Wind Dir Waves Ship Positions

Frank T. Stegbauer

Owner: Southern Towing Company, Memphis, TN. More information available from US FCC via Universal Licensing System and Coast Guard Vessel Documentation Center.

Last reported at 2015-May-04 10:33 UTC. Time now 2015-May-22 19:11 UTC.
Position N 30°57' W 091°39'.
Warning: this ship's position is 18 days out of date.

Length 35 m; draft 8.6 m.

Type: Tug. MMSI: 367373640.

Date/timePositionNaut miles runAvg speedWind from/ knotsBaromVisibWave heightAir tempDewpointWater temp
2015-May-04 10:33N 30°57' W 091°39'14 3.2
2015-May-04 06:12N 30°44' W 091°32'3 4.4
2015-May-04 05:27N 30°44' W 091°29'4 4.7
2015-May-04 04:33N 30°46' W 091°24'4 4.5
2015-May-04 03:33N 30°42' W 091°21'3 3.3
2015-May-04 02:33N 30°39' W 091°19'4 4.2
2015-May-04 01:33N 30°35' W 091°19'4 4.0
2015-May-04 00:33N 30°34' W 091°15'4 3.8
2015-May-03 23:33N 30°30' W 091°17'2 2.1
2015-May-03 22:33N 30°31' W 091°14'3 2.8
2015-May-03 21:33N 30°29' W 091°12'4 4.4
2015-May-03 20:33N 30°24' W 091°12'1 1.0
2015-May-03 19:33N 30°24' W 091°13'0 0.0
2015-May-03 18:33N 30°24' W 091°13'3 3.0
2015-May-03 17:28N 30°20' W 091°13'4 3.9
2015-May-03 16:29N 30°19' W 091°09'5 4.1
2015-May-03 15:18N 30°18' W 091°14'5 3.9
2015-May-03 14:07N 30°17' W 091°09'3 4.3
2015-May-03 13:31N 30°15' W 091°07'3 2.0
2015-May-03 12:05N 30°12' W 091°07'3 5.1
2015-May-03 11:32N 30°13' W 091°04'6 3.9
2015-May-03 10:05N 30°08' W 091°02'  
2015-Apr-30 13:30N 30°12' W 091°07'0 0.0
2015-Apr-30 12:28N 30°12' W 091°07'0 0.0
2015-Apr-30 11:16N 30°12' W 091°07'0 0.0
2015-Apr-30 10:33N 30°12' W 091°07'0 0.0
2015-Apr-30 09:07N 30°12' W 091°07'0 0.0
2015-Apr-30 08:28N 30°12' W 091°07'  
2015-Apr-28 01:18N 30°15' W 091°07'7 9.4
2015-Apr-28 00:33N 30°19' W 091°13'3 3.0
2015-Apr-27 23:33N 30°22' W 091°14'9 9.3
2015-Apr-27 22:33N 30°31' W 091°12'4 3.7
2015-Apr-27 21:33N 30°33' W 091°15'9 9.0
2015-Apr-27 20:32N 30°41' W 091°21'  

Dump ship's entire track history